Time;durP1;ratioP1;P1;durP2;ratioP2;P2;SDS_P1;SDS_P2;PMS_P1;PMS_P2;Temp;Humidity;BMP_temperature;BMP_pressure;BME280_temperature;BME280_humidity;BME280_pressure;Samples;Min_cycle;Max_cycle;Signal;HPM_P1;HPM_P2
2022/09/30 00:01:24;;;;;;;3.53;3.17;;;10.00;99.90;;;;;;5050113;28;20090;-44
2022/09/30 00:03:51;;;;;;;5.85;3.20;;;9.90;99.90;;;;;;5050688;28;20531;-42
2022/09/30 00:06:19;;;;;;;5.32;3.58;;;9.90;99.90;;;;;;5050340;28;20052;-41
2022/09/30 00:08:46;;;;;;;5.05;3.30;;;9.90;99.90;;;;;;5050926;28;20083;-42
2022/09/30 00:11:15;;;;;;;4.70;3.65;;;9.90;99.90;;;;;;5052943;28;20064;-45
2022/09/30 00:13:42;;;;;;;4.53;3.33;;;9.90;99.90;;;;;;5052029;28;20132;-47
2022/09/30 00:16:09;;;;;;;4.93;3.80;;;9.90;99.90;;;;;;5050816;28;20485;-45
2022/09/30 00:18:36;;;;;;;5.43;4.20;;;9.80;99.90;;;;;;5053449;28;20049;-45
2022/09/30 00:21:03;;;;;;;4.35;3.40;;;9.80;99.90;;;;;;5052317;28;20057;-44
2022/09/30 00:23:31;;;;;;;5.47;4.05;;;9.80;99.90;;;;;;5053275;28;20052;-45
2022/09/30 00:25:58;;;;;;;7.22;2.80;;;9.80;99.90;;;;;;5050189;28;20053;-42
2022/09/30 00:28:25;;;;;;;4.78;3.03;;;9.80;99.90;;;;;;5050571;28;20064;-45
2022/09/30 00:30:52;;;;;;;3.35;2.83;;;9.80;99.90;;;;;;5050964;28;20132;-44
2022/09/30 00:33:19;;;;;;;4.65;2.80;;;9.80;99.90;;;;;;5053073;28;20048;-44
2022/09/30 00:35:46;;;;;;;3.70;3.15;;;9.70;99.90;;;;;;5051414;28;20516;-43
2022/09/30 00:38:13;;;;;;;4.13;2.50;;;9.80;99.90;;;;;;5051036;28;20041;-44
2022/09/30 00:40:41;;;;;;;5.68;3.53;;;9.80;99.90;;;;;;5052757;28;20601;-45
2022/09/30 00:43:13;;;;;;;4.35;2.72;;;9.80;99.90;;;;;;5051467;28;20132;-47
2022/09/30 00:45:40;;;;;;;4.35;3.63;;;9.70;99.90;;;;;;5052033;28;20700;-42
2022/09/30 00:48:07;;;;;;;3.03;2.72;;;9.70;99.90;;;;;;5051694;28;20048;-45
2022/09/30 00:50:36;;;;;;;3.95;3.22;;;9.70;99.90;;;;;;5049705;28;20143;-40
2022/09/30 00:53:10;;;;;;;2.90;2.60;;;9.70;99.90;;;;;;5049793;28;20114;-43
2022/09/30 00:55:44;;;;;;;3.88;3.33;;;9.60;99.90;;;;;;5051298;28;20505;-45
2022/09/30 00:58:12;;;;;;;4.85;3.17;;;9.60;99.90;;;;;;5051358;28;20052;-46
2022/09/30 01:00:39;;;;;;;3.72;3.33;;;9.60;99.90;;;;;;5049956;28;20056;-48
2022/09/30 01:03:06;;;;;;;4.68;3.40;;;9.50;99.90;;;;;;5051238;28;20052;-42
2022/09/30 01:05:33;;;;;;;5.18;3.60;;;9.50;99.90;;;;;;5047196;28;20060;-42
2022/09/30 01:08:00;;;;;;;6.57;4.00;;;9.50;99.90;;;;;;5048005;28;20060;-44
2022/09/30 01:10:27;;;;;;;6.00;3.67;;;9.40;99.90;;;;;;5052279;28;20053;-44
2022/09/30 01:12:55;;;;;;;3.65;3.28;;;9.40;99.90;;;;;;5051984;28;20450;-47
2022/09/30 01:15:25;;;;;;;4.03;2.70;;;9.40;99.90;;;;;;5050912;28;20052;-44
2022/09/30 01:17:54;;;;;;;5.32;3.80;;;9.40;99.90;;;;;;5047393;28;20107;-43
2022/09/30 01:20:36;;;;;;;3.42;3.10;;;9.40;99.90;;;;;;5050331;28;20110;-46
2022/09/30 01:23:22;;;;;;;5.85;3.78;;;9.40;99.90;;;;;;5050059;28;20481;-45
2022/09/30 01:26:06;;;;;;;3.78;3.03;;;9.30;99.90;;;;;;5050572;28;20056;-48
2022/09/30 01:29:15;;;;;;;5.45;3.20;;;9.30;99.90;;;;;;5052200;28;20099;-42
2022/09/30 01:31:49;;;;;;;6.82;4.20;;;9.20;99.90;;;;;;4998308;28;20148;-45
2022/09/30 01:34:18;;;;;;;3.17;2.80;;;9.20;99.90;;;;;;5050894;28;20049;-44
2022/09/30 01:36:52;;;;;;;4.30;3.30;;;9.10;99.90;;;;;;5066870;28;20390;-45
2022/09/30 01:39:26;;;;;;;4.10;3.70;;;9.20;99.90;;;;;;5069593;28;20052;-45
2022/09/30 01:41:54;;;;;;;4.63;3.47;;;9.10;99.90;;;;;;5055832;28;20048;-44
2022/09/30 01:44:27;;;;;;;5.43;3.53;;;9.10;99.90;;;;;;5054419;28;20566;-46
2022/09/30 01:46:57;;;;;;;7.72;4.78;;;9.10;99.90;;;;;;5052575;28;20386;-47
2022/09/30 01:49:27;;;;;;;6.90;4.80;;;9.10;99.90;;;;;;5055775;28;20091;-44
2022/09/30 01:51:57;;;;;;;6.70;4.10;;;9.00;99.90;;;;;;5053541;28;20519;-44
2022/09/30 01:54:25;;;;;;;4.00;3.28;;;9.00;99.90;;;;;;5053852;28;20049;-44
2022/09/30 01:56:53;;;;;;;5.43;4.10;;;8.90;99.90;;;;;;5055026;28;20080;-45
2022/09/30 01:59:21;;;;;;;5.13;3.92;;;8.90;99.90;;;;;;5053175;28;20077;-42
2022/09/30 02:01:50;;;;;;;7.63;4.80;;;8.90;99.90;;;;;;5054720;28;20052;-43
2022/09/30 02:04:20;;;;;;;4.70;3.03;;;8.90;99.90;;;;;;5053957;28;20072;-45
2022/09/30 02:06:49;;;;;;;4.72;3.85;;;8.80;99.90;;;;;;5045995;28;20110;-44
2022/09/30 02:09:19;;;;;;;4.80;3.53;;;8.80;99.90;;;;;;5053937;28;20090;-45
2022/09/30 02:11:46;;;;;;;3.67;2.85;;;8.80;99.90;;;;;;5053819;28;20049;-44
2022/09/30 02:14:16;;;;;;;3.63;3.28;;;8.80;99.90;;;;;;5054127;28;20045;-47
2022/09/30 02:16:45;;;;;;;8.90;3.17;;;8.70;99.90;;;;;;5052005;28;20443;-44
2022/09/30 02:19:16;;;;;;;8.55;4.53;;;8.70;99.90;;;;;;5053661;28;20045;-44
2022/09/30 02:21:46;;;;;;;3.40;3.03;;;8.70;99.90;;;;;;5054357;28;20052;-46
2022/09/30 02:24:15;;;;;;;4.95;3.58;;;8.70;99.90;;;;;;5055030;28;20048;-47
2022/09/30 02:26:42;;;;;;;6.30;3.55;;;8.60;99.90;;;;;;5053321;28;20497;-47
2022/09/30 02:29:16;;;;;;;3.83;3.03;;;8.60;99.90;;;;;;5054850;28;20060;-46
2022/09/30 02:31:44;;;;;;;4.15;3.15;;;8.50;99.90;;;;;;5053267;28;20405;-36
2022/09/30 02:34:13;;;;;;;5.30;3.63;;;8.50;99.90;;;;;;5053391;28;20053;-44
2022/09/30 02:36:42;;;;;;;5.93;3.65;;;8.50;99.90;;;;;;5052586;28;20041;-45
2022/09/30 02:39:12;;;;;;;4.47;3.20;;;8.50;99.90;;;;;;5054949;28;20068;-48
2022/09/30 02:41:41;;;;;;;3.80;3.25;;;8.40;99.90;;;;;;5051866;28;20057;-42
2022/09/30 02:44:08;;;;;;;6.07;3.78;;;8.40;99.90;;;;;;5055339;28;20128;-44
2022/09/30 02:46:41;;;;;;;4.65;3.72;;;8.30;99.90;;;;;;5052477;28;20041;-45
2022/09/30 02:49:10;;;;;;;3.83;3.42;;;8.30;99.90;;;;;;5054331;28;20088;-44
2022/09/30 02:51:40;;;;;;;4.72;3.80;;;8.30;99.90;;;;;;5051779;28;20052;-43
2022/09/30 02:54:13;;;;;;;4.47;3.92;;;8.30;99.90;;;;;;5052867;28;20140;-45
2022/09/30 02:56:43;;;;;;;3.67;3.28;;;8.20;99.90;;;;;;5054083;28;20043;-46
2022/09/30 02:59:10;;;;;;;3.85;2.92;;;8.20;99.90;;;;;;5052234;28;20052;-44
2022/09/30 03:01:40;;;;;;;4.72;4.28;;;8.20;99.90;;;;;;5051451;28;20052;-41
2022/09/30 03:04:08;;;;;;;5.00;3.47;;;8.10;99.90;;;;;;5053914;28;20053;-45
2022/09/30 03:06:35;;;;;;;5.07;4.00;;;8.10;99.90;;;;;;5052026;28;20052;-46
2022/09/30 03:09:02;;;;;;;4.05;3.50;;;8.10;99.90;;;;;;5052386;28;20803;-47
2022/09/30 03:11:30;;;;;;;4.70;3.72;;;8.10;99.90;;;;;;5052716;28;20053;-43
2022/09/30 03:14:24;;;;;;;5.43;4.55;;;8.00;99.90;;;;;;5053447;28;20048;-45
2022/09/30 03:17:09;;;;;;;5.25;3.70;;;8.00;99.90;;;;;;5069606;28;20107;-44
2022/09/30 03:19:45;;;;;;;4.40;3.92;;;8.00;99.90;;;;;;5052350;28;20436;-47
2022/09/30 03:22:25;;;;;;;4.47;3.83;;;7.90;99.90;;;;;;5049217;28;20079;-47
2022/09/30 03:25:00;;;;;;;4.47;3.60;;;7.90;99.90;;;;;;5053097;28;20111;-46
2022/09/30 03:27:31;;;;;;;4.45;3.30;;;7.90;99.90;;;;;;5050360;28;20053;-46
2022/09/30 03:30:01;;;;;;;3.83;3.25;;;7.90;99.90;;;;;;5053423;28;20100;-44
2022/09/30 03:32:35;;;;;;;3.55;3.10;;;7.80;99.90;;;;;;5051266;28;20049;-47
2022/09/30 03:35:04;;;;;;;4.30;3.40;;;7.80;99.90;;;;;;5054069;28;20152;-48
2022/09/30 03:37:34;;;;;;;4.85;3.08;;;7.80;99.90;;;;;;5050939;28;20102;-48
2022/09/30 03:40:03;;;;;;;4.05;3.30;;;7.80;99.90;;;;;;5050461;28;20138;-43
2022/09/30 03:42:34;;;;;;;5.45;3.83;;;7.80;99.90;;;;;;5052238;28;20053;-45
2022/09/30 03:45:03;;;;;;;3.35;3.05;;;7.80;99.90;;;;;;5038886;28;20136;-46
2022/09/30 03:47:31;;;;;;;3.88;3.50;;;7.70;99.90;;;;;;5049328;28;20061;-44
2022/09/30 03:50:00;;;;;;;3.33;3.03;;;7.70;99.90;;;;;;5050801;28;20057;-43
2022/09/30 03:52:27;;;;;;;5.03;3.33;;;7.70;99.90;;;;;;5051727;28;20053;-44
2022/09/30 03:54:55;;;;;;;3.22;2.92;;;7.70;99.90;;;;;;5052497;28;20053;-45
2022/09/30 03:57:22;;;;;;;3.95;3.22;;;7.60;99.90;;;;;;5051450;28;20060;-47
2022/09/30 03:59:50;;;;;;;4.25;3.55;;;7.60;99.90;;;;;;5044136;28;20059;-44
2022/09/30 04:02:17;;;;;;;4.68;3.95;;;7.60;99.90;;;;;;5052716;28;20098;-47
2022/09/30 04:04:44;;;;;;;4.95;3.58;;;7.60;99.90;;;;;;5053720;28;20508;-45
2022/09/30 04:07:11;;;;;;;6.22;4.57;;;7.60;99.90;;;;;;5051476;28;20095;-45
2022/09/30 04:09:38;;;;;;;5.47;3.75;;;7.60;99.90;;;;;;5048824;28;20455;-47
2022/09/30 04:12:05;;;;;;;4.43;3.80;;;7.50;99.90;;;;;;5053362;28;20041;-44
2022/09/30 04:14:32;;;;;;;5.18;4.68;;;7.50;99.90;;;;;;5050459;28;20488;-43
2022/09/30 04:17:00;;;;;;;5.45;4.22;;;7.50;99.90;;;;;;5053236;28;20447;-46
2022/09/30 04:19:27;;;;;;;5.03;4.10;;;7.50;99.90;;;;;;5053635;28;20056;-45
2022/09/30 04:21:54;;;;;;;5.50;4.70;;;7.50;99.90;;;;;;5051947;28;20072;-39
2022/09/30 04:24:21;;;;;;;6.72;4.57;;;7.50;99.90;;;;;;5049919;28;20040;-43
2022/09/30 04:26:48;;;;;;;4.32;3.75;;;7.40;99.90;;;;;;5051184;28;20098;-44
2022/09/30 04:29:15;;;;;;;6.53;4.78;;;7.40;99.90;;;;;;5052009;28;20061;-45
2022/09/30 04:31:41;;;;;;;8.85;5.38;;;7.40;99.90;;;;;;5041172;28;20049;-43
2022/09/30 04:34:10;;;;;;;6.93;5.13;;;7.40;99.90;;;;;;5050560;28;20050;-41
2022/09/30 04:36:37;;;;;;;4.15;3.58;;;7.40;99.90;;;;;;5049390;28;20516;-44
2022/09/30 04:39:04;;;;;;;6.18;4.30;;;7.40;99.90;;;;;;5065199;28;20084;-46
2022/09/30 04:41:31;;;;;;;5.95;5.35;;;7.30;99.90;;;;;;5047354;28;20527;-45
2022/09/30 04:43:57;;;;;;;7.88;5.72;;;7.40;99.90;;;;;;5044817;28;20061;-45
2022/09/30 04:46:24;;;;;;;6.47;5.85;;;7.30;99.90;;;;;;5051860;28;20064;-46
2022/09/30 04:48:51;;;;;;;8.95;6.72;;;7.30;99.90;;;;;;5049626;28;20076;-44
2022/09/30 04:51:20;;;;;;;7.50;6.40;;;7.30;99.90;;;;;;5050115;28;20052;-43
2022/09/30 04:53:47;;;;;;;6.85;5.80;;;7.30;99.90;;;;;;5051142;28;20095;-46
2022/09/30 04:56:15;;;;;;;7.70;6.38;;;7.30;99.90;;;;;;5049283;28;20080;-42
2022/09/30 04:58:42;;;;;;;9.27;7.43;;;7.30;99.90;;;;;;5052919;28;20049;-42
2022/09/30 05:01:10;;;;;;;9.25;6.13;;;7.30;99.90;;;;;;5051111;28;20051;-45
2022/09/30 05:03:37;;;;;;;6.85;6.03;;;7.30;99.90;;;;;;5051185;28;20056;-45
2022/09/30 05:06:05;;;;;;;8.32;7.43;;;7.20;99.90;;;;;;5045084;28;20065;-46
2022/09/30 05:08:33;;;;;;;9.55;7.25;;;7.20;99.90;;;;;;5050458;28;20053;-44
2022/09/30 05:11:01;;;;;;;12.45;8.95;;;7.20;99.90;;;;;;5050009;28;20481;-42
2022/09/30 05:13:30;;;;;;;8.35;6.90;;;7.20;99.90;;;;;;5052168;28;20492;-43
2022/09/30 05:15:57;;;;;;;7.50;5.63;;;7.20;99.90;;;;;;5051353;28;20057;-45
2022/09/30 05:18:25;;;;;;;6.30;5.43;;;7.10;99.90;;;;;;5052063;28;20049;-45
2022/09/30 05:20:52;;;;;;;5.97;5.32;;;7.20;99.90;;;;;;5050196;28;20053;-44
2022/09/30 05:23:19;;;;;;;5.93;4.97;;;7.10;99.90;;;;;;5048821;28;20056;-39
2022/09/30 05:25:47;;;;;;;9.77;6.47;;;7.10;99.90;;;;;;5045686;28;20052;-44
2022/09/30 05:28:14;;;;;;;9.45;6.45;;;7.10;99.90;;;;;;5047384;28;20084;-49
2022/09/30 05:30:42;;;;;;;8.43;5.40;;;7.10;99.90;;;;;;5050726;28;20052;-45
2022/09/30 05:33:09;;;;;;;7.00;5.30;;;7.00;99.90;;;;;;5050475;28;20053;-44
2022/09/30 05:35:36;;;;;;;7.45;6.32;;;7.00;99.90;;;;;;5050431;28;20048;-44
2022/09/30 05:38:03;;;;;;;7.30;5.90;;;7.00;99.90;;;;;;5067004;28;20174;-44
2022/09/30 05:40:30;;;;;;;9.70;7.30;;;7.00;99.90;;;;;;5053761;28;20045;-43
2022/09/30 05:42:58;;;;;;;11.40;8.05;;;7.00;99.90;;;;;;5049767;28;20053;-45
2022/09/30 05:45:25;;;;;;;6.78;5.85;;;6.90;99.90;;;;;;5050736;28;20049;-45
2022/09/30 05:47:52;;;;;;;8.55;7.03;;;6.90;99.90;;;;;;5051281;28;20044;-46
2022/09/30 05:50:19;;;;;;;8.77;6.93;;;6.90;99.90;;;;;;5050028;28;20048;-49
2022/09/30 05:52:46;;;;;;;7.82;6.00;;;6.90;99.90;;;;;;5039022;28;20505;-43
2022/09/30 05:55:13;;;;;;;7.72;6.93;;;6.90;99.90;;;;;;5045296;28;20068;-44
2022/09/30 05:57:40;;;;;;;7.78;6.93;;;6.90;99.90;;;;;;5048093;28;20448;-48
2022/09/30 06:00:09;;;;;;;7.25;6.55;;;6.90;99.90;;;;;;5047222;28;20495;-47
2022/09/30 06:02:45;;;;;;;9.90;7.18;;;6.90;99.90;;;;;;5032707;28;20051;-45
2022/09/30 06:05:12;;;;;;;8.35;7.18;;;6.90;99.90;;;;;;5046693;28;20037;-49
2022/09/30 06:07:39;;;;;;;8.07;6.65;;;6.90;99.90;;;;;;5042399;28;20044;-46
2022/09/30 06:10:08;;;;;;;11.88;8.68;;;6.90;99.90;;;;;;5049348;28;20049;-45
2022/09/30 06:12:36;;;;;;;10.38;6.80;;;6.90;99.90;;;;;;5054692;28;20049;-49
2022/09/30 06:15:02;;;;;;;9.70;7.15;;;6.90;99.90;;;;;;5050040;28;20055;-44
2022/09/30 06:17:31;;;;;;;11.77;7.50;;;6.90;99.90;;;;;;5048488;28;20443;-43
2022/09/30 06:19:57;;;;;;;10.70;7.53;;;6.90;99.90;;;;;;5042711;28;20482;-42
2022/09/30 06:22:25;;;;;;;12.40;9.18;;;6.90;99.90;;;;;;5044110;28;20069;-44
2022/09/30 06:24:53;;;;;;;10.38;7.70;;;6.90;99.90;;;;;;5048895;28;20049;-43
2022/09/30 06:27:20;;;;;;;11.88;8.45;;;7.00;99.90;;;;;;5048386;28;20055;-48
2022/09/30 06:29:48;;;;;;;18.00;12.35;;;7.00;99.90;;;;;;5066086;28;20073;-43
2022/09/30 06:32:14;;;;;;;14.13;10.90;;;7.00;99.90;;;;;;5053427;28;20084;-42
2022/09/30 06:34:43;;;;;;;10.43;8.70;;;7.00;99.90;;;;;;5053078;28;20049;-44
2022/09/30 06:37:12;;;;;;;15.38;11.25;;;7.10;99.90;;;;;;5051923;28;20056;-43
2022/09/30 06:39:40;;;;;;;11.13;9.40;;;7.10;99.90;;;;;;5051899;28;20052;-43
2022/09/30 06:42:07;;;;;;;17.08;11.85;;;7.10;99.90;;;;;;5053040;28;20083;-44
2022/09/30 06:44:34;;;;;;;18.15;12.82;;;7.20;99.90;;;;;;5052439;28;20041;-45
2022/09/30 06:47:01;;;;;;;19.85;15.77;;;7.20;99.90;;;;;;5052981;28;20377;-41
2022/09/30 06:49:28;;;;;;;19.50;14.02;;;7.30;99.90;;;;;;5052128;28;20053;-43
2022/09/30 06:51:59;;;;;;;23.05;15.35;;;7.40;99.90;;;;;;5050925;28;20501;-42
2022/09/30 06:54:27;;;;;;;31.08;15.60;;;7.50;99.90;;;;;;5043124;28;20056;-42
2022/09/30 06:56:54;;;;;;;41.00;18.83;;;7.50;99.90;;;;;;5051420;28;20527;-42
2022/09/30 06:59:21;;;;;;;36.15;20.25;;;7.60;99.90;;;;;;5052776;28;20041;-40
2022/09/30 07:01:48;;;;;;;29.05;18.80;;;7.70;99.90;;;;;;5048724;28;20049;-42
2022/09/30 07:04:15;;;;;;;34.72;20.45;;;7.80;99.90;;;;;;5048579;28;20730;-43
2022/09/30 07:06:42;;;;;;;29.10;18.25;;;7.90;99.90;;;;;;5050183;28;20045;-45
2022/09/30 07:09:10;;;;;;;39.33;20.45;;;8.00;99.90;;;;;;5050249;28;20126;-44
2022/09/30 07:11:37;;;;;;;35.58;20.83;;;8.10;99.90;;;;;;5052274;28;20052;-41
2022/09/30 07:14:04;;;;;;;33.00;20.52;;;8.20;99.90;;;;;;5051384;28;20084;-41
2022/09/30 07:16:32;;;;;;;33.78;19.15;;;8.30;99.90;;;;;;5051506;28;20114;-43
2022/09/30 07:19:00;;;;;;;41.15;19.38;;;8.40;99.90;;;;;;5047053;28;20060;-43
2022/09/30 07:21:29;;;;;;;34.28;19.67;;;8.40;99.90;;;;;;5052112;28;20049;-45
2022/09/30 07:23:57;;;;;;;47.38;17.33;;;8.50;99.90;;;;;;5050118;28;20044;-46
2022/09/30 07:26:26;;;;;;;30.92;18.42;;;8.60;99.90;;;;;;5052398;28;20141;-45
2022/09/30 07:28:53;;;;;;;78.82;21.95;;;8.60;99.90;;;;;;5050759;28;20111;-44
2022/09/30 07:31:20;;;;;;;53.08;19.60;;;8.70;99.90;;;;;;5050468;28;20049;-44
2022/09/30 07:33:50;;;;;;;62.97;21.92;;;8.80;99.90;;;;;;5050701;28;20051;-48
2022/09/30 07:36:17;;;;;;;44.63;21.63;;;8.80;99.90;;;;;;5039700;28;20059;-46
2022/09/30 07:38:45;;;;;;;51.08;19.80;;;8.90;99.90;;;;;;5050704;28;20091;-41
2022/09/30 07:41:13;;;;;;;71.95;22.35;;;9.00;99.90;;;;;;5049358;28;20057;-39
2022/09/30 07:43:43;;;;;;;67.72;21.48;;;9.10;99.90;;;;;;5051398;28;20394;-45
2022/09/30 07:46:12;;;;;;;42.35;19.67;;;9.10;99.90;;;;;;5050465;28;20102;-44
2022/09/30 07:48:44;;;;;;;53.55;24.15;;;9.20;99.90;;;;;;5052105;28;20049;-45
2022/09/30 07:51:13;;;;;;;61.47;23.15;;;9.30;99.90;;;;;;5050467;28;20053;-45
2022/09/30 07:53:40;;;;;;;37.88;20.80;;;9.40;99.90;;;;;;5051669;28;20077;-38
2022/09/30 07:56:07;;;;;;;36.22;19.98;;;9.50;99.90;;;;;;5049545;28;20056;-40
2022/09/30 07:58:34;;;;;;;55.17;23.73;;;9.50;99.90;;;;;;5046622;28;20053;-45
2022/09/30 08:01:02;;;;;;;46.67;23.15;;;9.60;99.90;;;;;;5048488;28;20084;-46
2022/09/30 08:03:29;;;;;;;40.47;22.55;;;9.70;99.90;;;;;;5050474;28;20040;-42
2022/09/30 08:05:56;;;;;;;44.70;23.83;;;9.80;99.90;;;;;;5055295;28;20052;-45
2022/09/30 08:08:23;;;;;;;36.10;20.88;;;10.00;99.90;;;;;;5049542;28;20052;-47
2022/09/30 08:10:49;;;;;;;35.28;21.05;;;10.10;99.90;;;;;;5049119;28;20057;-43
2022/09/30 08:13:18;;;;;;;36.38;21.70;;;10.30;99.90;;;;;;5049739;28;20099;-46
2022/09/30 08:15:45;;;;;;;39.47;21.77;;;10.40;99.90;;;;;;5051382;28;20049;-45
2022/09/30 08:18:13;;;;;;;37.83;20.88;;;10.60;99.90;;;;;;5049923;28;20386;-44
2022/09/30 08:20:40;;;;;;;29.80;19.50;;;10.80;99.90;;;;;;5051347;28;20124;-46
2022/09/30 08:23:07;;;;;;;29.73;18.23;;;11.00;99.90;;;;;;5051780;28;20048;-45
2022/09/30 08:25:34;;;;;;;27.10;17.40;;;11.20;99.90;;;;;;5052267;28;20102;-45
2022/09/30 08:28:01;;;;;;;27.42;18.20;;;11.40;99.90;;;;;;5051507;28;20460;-43
2022/09/30 08:30:28;;;;;;;26.85;17.05;;;11.60;99.90;;;;;;5050238;28;20119;-43
2022/09/30 08:32:54;;;;;;;22.40;16.35;;;11.80;99.90;;;;;;5050537;28;20077;-42
2022/09/30 08:35:23;;;;;;;25.75;15.45;;;11.80;99.90;;;;;;5052526;28;20131;-44
2022/09/30 08:37:50;;;;;;;20.90;15.35;;;12.00;99.90;;;;;;5052407;28;20064;-44
2022/09/30 08:40:19;;;;;;;16.40;12.43;;;12.20;99.90;;;;;;5052100;28;20057;-47
2022/09/30 08:42:53;;;;;;;14.55;11.38;;;12.40;99.90;;;;;;5067570;28;20412;-44
2022/09/30 08:45:25;;;;;;;18.27;12.18;;;12.60;99.90;;;;;;5050653;28;20094;-42
2022/09/30 08:47:57;;;;;;;13.05;9.88;;;12.80;99.90;;;;;;5052184;28;20170;-46
2022/09/30 08:50:29;;;;;;;11.95;8.82;;;13.00;99.90;;;;;;5051002;28;20095;-45
2022/09/30 08:52:58;;;;;;;11.73;8.70;;;13.10;99.90;;;;;;5050990;28;20049;-41
2022/09/30 08:55:25;;;;;;;13.98;9.32;;;13.30;99.90;;;;;;5052040;28;20092;-41
2022/09/30 08:57:52;;;;;;;11.38;8.10;;;13.40;99.90;;;;;;5051840;28;20048;-43
2022/09/30 09:00:20;;;;;;;14.05;7.72;;;13.60;99.90;;;;;;5049860;28;20119;-43
2022/09/30 09:02:49;;;;;;;8.40;7.38;;;13.70;99.90;;;;;;5050787;28;20485;-48
2022/09/30 09:05:20;;;;;;;11.50;8.00;;;13.90;99.90;;;;;;5062316;28;20051;-44
2022/09/30 09:07:51;;;;;;;10.75;7.80;;;13.90;99.90;;;;;;5030979;28;20457;-45
2022/09/30 09:10:27;;;;;;;9.50;7.25;;;14.10;99.90;;;;;;5049281;28;20611;-44
2022/09/30 09:12:57;;;;;;;8.43;7.03;;;14.20;99.90;;;;;;5049960;28;20051;-46
2022/09/30 09:15:43;;;;;;;9.77;6.75;;;14.30;99.90;;;;;;5051870;28;20053;-43
2022/09/30 09:18:27;;;;;;;7.88;5.85;;;14.50;99.90;;;;;;5050717;28;20110;-46
2022/09/30 09:20:55;;;;;;;6.90;5.82;;;14.60;99.90;;;;;;5049043;28;20049;-42
2022/09/30 09:23:23;;;;;;;6.63;5.82;;;14.70;99.90;;;;;;5051399;28;20543;-44
2022/09/30 09:25:51;;;;;;;5.78;4.88;;;14.80;99.90;;;;;;5051577;28;20102;-43
2022/09/30 09:28:25;;;;;;;5.05;3.97;;;15.00;99.90;;;;;;5051707;28;20080;-44
2022/09/30 09:30:54;;;;;;;5.95;4.55;;;15.10;99.90;;;;;;5050583;28;20053;-43
2022/09/30 09:33:24;;;;;;;6.25;4.25;;;15.30;99.90;;;;;;5051591;28;20092;-47
2022/09/30 09:35:54;;;;;;;5.40;4.70;;;15.30;99.90;;;;;;5049280;28;20071;-44
2022/09/30 09:38:24;;;;;;;8.05;4.50;;;15.40;99.90;;;;;;5067066;28;20049;-45
2022/09/30 09:40:58;;;;;;;3.70;3.25;;;15.50;99.90;;;;;;5066611;28;20135;-41
2022/09/30 09:43:30;;;;;;;5.97;3.67;;;15.70;99.90;;;;;;5050478;28;20412;-45
2022/09/30 09:45:57;;;;;;;;;;;15.70;99.90;;;;;;5051609;28;20545;-44
2022/09/30 09:48:24;;;;;;;4.80;2.67;;;15.70;99.90;;;;;;5050105;28;19974;-44
2022/09/30 09:50:57;;;;;;;4.75;2.80;;;15.80;99.90;;;;;;5051435;28;20053;-44
2022/09/30 09:53:44;;;;;;;7.72;3.05;;;15.90;99.90;;;;;;5051113;28;20111;-45
2022/09/30 09:56:17;;;;;;;4.43;2.83;;;15.90;99.90;;;;;;5050495;28;20142;-43
2022/09/30 09:59:09;;;;;;;3.88;2.58;;;16.00;99.90;;;;;;5054746;28;20469;-43
2022/09/30 10:01:37;;;;;;;4.15;3.10;;;16.20;99.90;;;;;;5054319;28;20128;-46
2022/09/30 10:04:16;;;;;;;4.95;3.50;;;16.20;99.90;;;;;;5052370;28;20053;-43
2022/09/30 10:06:49;;;;;;;6.63;3.28;;;16.20;99.90;;;;;;5053990;28;20041;-45
2022/09/30 10:09:25;;;;;;;4.63;3.20;;;16.30;99.90;;;;;;5059457;28;20072;-42
2022/09/30 10:11:52;;;;;;;4.40;3.33;;;16.40;99.40;;;;;;5055338;28;20067;-45
2022/09/30 10:14:24;;;;;;;5.47;3.83;;;16.40;99.90;;;;;;5055119;28;20099;-46
2022/09/30 10:16:51;;;;;;;7.03;4.22;;;16.50;99.60;;;;;;5054001;28;20092;-43
2022/09/30 10:19:20;;;;;;;6.55;4.13;;;16.50;99.10;;;;;;5053762;28;20460;-43
2022/09/30 10:21:46;;;;;;;5.95;4.25;;;16.60;99.30;;;;;;5054713;28;20045;-42
2022/09/30 10:24:20;;;;;;;7.38;4.60;;;16.60;98.90;;;;;;5054885;28;20049;-44
2022/09/30 10:26:48;;;;;;;6.28;4.93;;;16.70;98.90;;;;;;5054467;28;20048;-42
2022/09/30 10:29:26;;;;;;;7.25;4.85;;;16.80;98.70;;;;;;5051918;28;20412;-43
2022/09/30 10:31:53;;;;;;;6.25;4.25;;;16.80;98.20;;;;;;5055342;28;20049;-46
2022/09/30 10:34:23;;;;;;;5.90;4.53;;;16.90;98.70;;;;;;5054137;28;20064;-46
2022/09/30 10:36:50;;;;;;;6.18;4.18;;;17.00;98.20;;;;;;5050537;28;20172;-48
2022/09/30 10:39:20;;;;;;;6.80;3.88;;;17.10;97.80;;;;;;5055531;28;20088;-42
2022/09/30 10:41:48;;;;;;;5.60;4.28;;;17.10;97.30;;;;;;5055413;28;20049;-43
2022/09/30 10:44:16;;;;;;;5.93;4.13;;;17.20;97.20;;;;;;5071116;28;20044;-43
2022/09/30 10:46:44;;;;;;;5.80;4.40;;;17.20;96.70;;;;;;5059330;28;20136;-44
2022/09/30 10:49:13;;;;;;;6.95;4.32;;;17.20;96.70;;;;;;5054490;28;20059;-44
2022/09/30 10:51:40;;;;;;;5.50;3.90;;;17.20;96.50;;;;;;5055363;28;20158;-46
2022/09/30 10:54:07;;;;;;;4.95;3.70;;;17.30;96.50;;;;;;5054263;28;20083;-45
2022/09/30 10:56:37;;;;;;;8.52;3.75;;;17.40;96.40;;;;;;5055238;28;20044;-42
2022/09/30 10:59:12;;;;;;;4.05;3.40;;;17.50;95.90;;;;;;5053631;28;20137;-45
2022/09/30 11:01:41;;;;;;;4.47;3.15;;;17.60;95.80;;;;;;5062721;28;20049;-45
2022/09/30 11:04:11;;;;;;;3.78;2.55;;;17.60;94.90;;;;;;5070420;28;20620;-46
2022/09/30 11:06:39;;;;;;;7.07;3.03;;;17.50;94.50;;;;;;5038382;28;20057;-44
2022/09/30 11:12:02;;;;;;;3.40;2.55;;;17.40;94.90;;;;;;5046544;28;20057;-46
2022/09/30 11:14:33;;;;;;;3.78;2.50;;;17.40;94.80;;;;;;5053904;28;20049;-46
2022/09/30 11:17:05;;;;;;;5.18;2.90;;;17.30;94.60;;;;;;5054010;28;20111;-49
2022/09/30 11:19:34;;;;;;;4.05;3.00;;;17.30;94.90;;;;;;5054880;28;20052;-48
2022/09/30 11:22:08;;;;;;;3.33;2.35;;;17.40;94.60;;;;;;5054687;28;20131;-48
2022/09/30 11:24:38;;;;;;;3.50;3.10;;;17.60;94.60;;;;;;5052886;28;20052;-46
2022/09/30 11:27:07;;;;;;;4.85;3.15;;;17.60;94.40;;;;;;5053334;28;20056;-47
2022/09/30 11:29:42;;;;;;;5.53;3.88;;;17.60;94.10;;;;;;5053664;28;20075;-44
2022/09/30 11:32:14;;;;;;;4.50;3.47;;;17.70;93.50;;;;;;5054833;28;20132;-44
2022/09/30 11:34:44;;;;;;;;;;;17.70;94.00;;;;;;5055056;28;20048;-48
2022/09/30 11:37:15;;;;;;;5.32;3.47;;;17.60;94.20;;;;;;5052481;28;19921;-47
2022/09/30 11:40:16;;;;;;;11.43;3.25;;;17.60;94.90;;;;;;5034118;28;20061;-45
2022/09/30 11:42:46;;;;;;;4.72;2.88;;;17.60;94.70;;;;;;4987579;28;20088;-48
2022/09/30 11:45:25;;;;;;;4.88;3.40;;;17.70;94.90;;;;;;5037203;28;20080;-45
2022/09/30 11:48:00;;;;;;;4.32;3.25;;;17.80;94.20;;;;;;5053239;28;20056;-44
2022/09/30 11:50:32;;;;;;;4.60;2.75;;;17.80;94.20;;;;;;5069716;28;20102;-41
2022/09/30 11:53:06;;;;;;;6.28;3.05;;;17.90;93.50;;;;;;5069811;28;20131;-45
2022/09/30 11:55:42;;;;;;;6.05;3.97;;;18.00;93.20;;;;;;5054026;28;20114;-48
2022/09/30 11:58:09;;;;;;;5.40;4.00;;;18.00;93.20;;;;;;5052315;28;20061;-45
2022/09/30 12:00:39;;;;;;;4.22;3.83;;;18.20;93.20;;;;;;5052876;28;20568;-46
2022/09/30 12:03:08;;;;;;;6.93;3.95;;;18.20;92.60;;;;;;5052355;28;20185;-46
2022/09/30 12:05:37;;;;;;;5.63;3.95;;;18.10;92.80;;;;;;5052843;28;20127;-45
2022/09/30 12:08:06;;;;;;;5.55;4.35;;;18.10;92.90;;;;;;5061054;28;20052;-44
2022/09/30 12:10:34;;;;;;;4.80;3.85;;;18.30;93.00;;;;;;5057511;28;20053;-45
2022/09/30 12:13:03;;;;;;;6.35;4.65;;;18.40;92.70;;;;;;5053745;28;20102;-45
2022/09/30 12:15:30;;;;;;;6.53;5.00;;;18.40;92.60;;;;;;5053075;28;20080;-47
2022/09/30 12:18:00;;;;;;;6.78;5.60;;;18.30;92.40;;;;;;5071981;28;20044;-45
2022/09/30 12:20:29;;;;;;;9.23;5.88;;;18.20;92.70;;;;;;5071959;28;20056;-46
2022/09/30 12:22:59;;;;;;;9.90;5.63;;;18.10;92.90;;;;;;5054886;28;20057;-49
2022/09/30 12:25:28;;;;;;;6.73;5.27;;;18.30;92.70;;;;;;5058069;28;20052;-42
2022/09/30 12:27:56;;;;;;;6.63;5.22;;;18.50;93.10;;;;;;5064682;28;20310;-45
2022/09/30 12:30:22;;;;;;;7.07;5.18;;;18.70;92.30;;;;;;5068645;28;20056;-49
2022/09/30 12:33:16;;;;;;;8.50;5.80;;;18.90;91.70;;;;;;5073487;28;20040;-46
2022/09/30 12:36:13;;;;;;;9.02;6.53;;;18.80;90.80;;;;;;5073533;28;20056;-44
2022/09/30 12:39:24;;;;;;;14.23;7.35;;;18.70;91.30;;;;;;5055294;28;20139;-48
2022/09/30 12:41:59;;;;;;;8.20;7.27;;;18.60;91.50;;;;;;5031053;28;20053;-49
2022/09/30 12:44:41;;;;;;;9.77;7.82;;;18.60;91.60;;;;;;5044881;28;20057;-48
2022/09/30 12:47:19;;;;;;;10.57;6.95;;;18.50;90.70;;;;;;5049830;28;20059;-49
2022/09/30 12:49:48;;;;;;;8.85;6.90;;;18.40;91.60;;;;;;5053373;28;20053;-47
2022/09/30 12:52:15;;;;;;;12.52;6.95;;;18.30;91.60;;;;;;5052464;28;20045;-46
2022/09/30 12:54:43;;;;;;;9.10;7.15;;;18.40;91.40;;;;;;5053118;28;20053;-48
2022/09/30 12:57:10;;;;;;;10.43;6.97;;;18.60;91.30;;;;;;5052042;28;20103;-48
2022/09/30 12:59:39;;;;;;;10.38;6.82;;;18.60;90.90;;;;;;5051959;28;20052;-46
2022/09/30 13:02:06;;;;;;;10.30;7.22;;;18.80;91.00;;;;;;5053137;28;20366;-47
2022/09/30 13:04:34;;;;;;;9.35;7.03;;;18.90;90.90;;;;;;5064618;28;20056;-47
2022/09/30 13:07:13;;;;;;;8.27;6.38;;;18.90;90.40;;;;;;5051301;28;20103;-44